createdAt,value
2022-12-25T00:03:39.112Z,14.60
2022-12-25T00:11:44.537Z,14.50
2022-12-25T00:19:52.641Z,14.50
2022-12-25T00:27:58.126Z,14.40
2022-12-25T00:36:06.998Z,14.10
2022-12-25T00:44:13.784Z,14.10
2022-12-25T00:52:21.935Z,14.20
2022-12-25T01:00:27.277Z,14.10
2022-12-25T01:08:37.749Z,14.10
2022-12-25T01:16:43.645Z,14.10
2022-12-25T01:24:51.706Z,13.90
2022-12-25T01:32:58.184Z,13.80
2022-12-25T01:41:06.345Z,13.70
2022-12-25T01:49:14.966Z,13.80
2022-12-25T01:57:28.043Z,13.80
2022-12-25T02:05:36.116Z,13.80
2022-12-25T02:13:44.219Z,13.80
2022-12-25T02:22:03.821Z,13.90
2022-12-25T02:30:14.201Z,13.80
2022-12-25T02:38:23.351Z,13.90
2022-12-25T02:46:46.382Z,13.90
2022-12-25T02:55:24.299Z,13.80
2022-12-25T03:03:48.837Z,13.90
2022-12-25T03:12:01.873Z,13.90
2022-12-25T03:20:35.523Z,13.90
2022-12-25T03:28:40.849Z,13.90
2022-12-25T03:37:02.340Z,13.90
2022-12-25T03:45:32.973Z,13.90
2022-12-25T03:53:57.794Z,14.00
2022-12-25T04:02:15.673Z,13.80
2022-12-25T04:10:36.044Z,13.70
2022-12-25T04:18:54.185Z,13.50
2022-12-25T04:27:17.393Z,13.50
2022-12-25T04:35:35.148Z,13.50
2022-12-25T04:43:43.247Z,13.60
2022-12-25T04:51:48.672Z,13.60
2022-12-25T04:59:56.740Z,13.60
2022-12-25T05:08:02.060Z,13.50
2022-12-25T05:16:15.455Z,13.50
2022-12-25T05:24:21.403Z,13.60
2022-12-25T05:32:29.587Z,13.60
2022-12-25T05:40:37.017Z,13.60
2022-12-25T05:48:45.380Z,13.50
2022-12-25T05:56:50.621Z,13.50
2022-12-25T06:04:58.678Z,13.70
2022-12-25T06:13:04.205Z,13.70
2022-12-25T06:21:14.516Z,13.70
2022-12-25T06:29:20.075Z,13.80
2022-12-25T06:37:28.193Z,13.80
2022-12-25T06:45:33.778Z,13.80
2022-12-25T06:53:42.485Z,13.90
2022-12-25T07:01:50.654Z,13.90
2022-12-25T07:09:58.835Z,14.00
2022-12-25T07:18:04.693Z,14.10
2022-12-25T07:26:14.721Z,14.20
2022-12-25T07:34:20.567Z,14.20
2022-12-25T07:42:28.759Z,14.40
2022-12-25T07:50:34.463Z,14.60
2022-12-25T07:58:42.612Z,14.50
2022-12-25T08:06:48.135Z,14.70
2022-12-25T08:14:56.307Z,14.70
2022-12-25T08:23:02.816Z,14.90
2022-12-25T08:31:17.079Z,15.20
2022-12-25T08:39:22.661Z,15.20
2022-12-25T08:47:30.728Z,15.40
2022-12-25T08:55:36.113Z,15.50
2022-12-25T09:03:44.352Z,15.70
2022-12-25T09:11:49.911Z,15.90
2022-12-25T09:19:58.072Z,15.80
2022-12-25T09:28:03.662Z,15.70
2022-12-25T09:36:14.924Z,15.40
2022-12-25T09:44:24.082Z,15.40
2022-12-25T09:52:40.476Z,15.70
2022-12-25T10:00:57.537Z,15.90
2022-12-25T10:09:26.826Z,15.90
2022-12-25T10:17:43.674Z,15.40
2022-12-25T10:25:51.837Z,15.50
2022-12-25T10:33:58.508Z,15.70
2022-12-25T10:42:26.729Z,15.80
2022-12-25T10:50:33.919Z,16.10
2022-12-25T10:58:41.978Z,16.30
2022-12-25T11:06:47.568Z,16.70
2022-12-25T11:15:04.472Z,17.00
2022-12-25T11:23:13.597Z,17.10
2022-12-25T11:31:24.646Z,17.50
2022-12-25T11:39:32.504Z,17.60
2022-12-25T11:47:45.107Z,17.90
2022-12-25T11:55:55.029Z,18.10
2022-12-25T12:04:04.228Z,18.00
2022-12-25T12:12:13.350Z,18.10
2022-12-25T12:20:32.927Z,18.00
2022-12-25T12:28:47.784Z,18.20
2022-12-25T12:37:03.952Z,18.10
2022-12-25T12:45:19.325Z,17.80
2022-12-25T12:53:35.024Z,17.30
2022-12-25T13:01:51.433Z,16.80
2022-12-25T13:10:10.623Z,16.60
2022-12-25T13:18:17.143Z,16.70
2022-12-25T13:26:25.188Z,16.80
2022-12-25T13:34:34.152Z,16.90
2022-12-25T13:42:42.860Z,16.90
2022-12-25T13:50:49.369Z,16.80
2022-12-25T13:58:57.653Z,16.40
2022-12-25T14:07:12.664Z,16.20
2022-12-25T14:15:24.019Z,16.00
2022-12-25T14:23:30.337Z,15.50
2022-12-25T14:31:39.842Z,15.40
2022-12-25T14:39:48.459Z,15.30
2022-12-25T14:48:00.334Z,15.50
2022-12-25T14:56:06.449Z,15.50
2022-12-25T15:04:24.527Z,15.50
2022-12-25T15:12:30.201Z,14.90
2022-12-25T15:20:38.899Z,14.80
2022-12-25T15:28:44.752Z,14.60
2022-12-25T15:36:54.773Z,14.50
2022-12-25T15:45:00.667Z,14.40
2022-12-25T15:53:09.111Z,14.30
2022-12-25T16:01:18.301Z,14.10
2022-12-25T16:09:27.695Z,14.00
2022-12-25T16:17:33.201Z,13.90
2022-12-25T16:25:41.240Z,13.80
2022-12-25T16:33:46.693Z,13.70
2022-12-25T16:41:54.870Z,13.50
2022-12-25T16:50:00.565Z,13.40
2022-12-25T16:58:19.413Z,13.00
2022-12-25T17:06:27.110Z,13.00
2022-12-25T17:14:35.564Z,12.60
2022-12-25T17:22:41.054Z,12.50
2022-12-25T17:30:49.102Z,12.40
2022-12-25T17:38:54.533Z,12.40
2022-12-25T17:47:02.661Z,12.30
2022-12-25T17:55:09.528Z,12.10
2022-12-25T18:03:18.488Z,11.90
2022-12-25T18:11:29.335Z,11.90
2022-12-25T18:19:37.444Z,11.90
2022-12-25T18:27:45.042Z,11.70
2022-12-25T18:35:53.402Z,11.60
2022-12-25T18:43:59.850Z,11.60
2022-12-25T18:52:47.715Z,11.20
2022-12-25T19:00:34.158Z,11.20
2022-12-25T19:08:42.296Z,11.10
2022-12-25T19:16:47.755Z,11.10
2022-12-25T19:24:55.718Z,11.10
2022-12-25T19:33:01.311Z,10.90
2022-12-25T19:41:13.077Z,11.00
2022-12-25T19:49:18.494Z,10.70
2022-12-25T19:57:26.521Z,10.60
2022-12-25T20:05:32.305Z,10.20
2022-12-25T20:13:40.667Z,10.00
2022-12-25T20:21:46.214Z,10.00
2022-12-25T20:30:16.887Z,10.20
2022-12-25T20:38:22.420Z,10.20
2022-12-25T20:46:30.484Z,10.10
2022-12-25T20:54:35.994Z,10.20
2022-12-25T21:02:44.618Z,10.20
2022-12-25T21:10:52.476Z,10.20
2022-12-25T21:19:01.307Z,10.00
2022-12-25T21:27:06.993Z,10.00
2022-12-25T21:35:15.309Z,9.60
2022-12-25T21:43:31.414Z,9.70
2022-12-25T21:51:51.624Z,9.70
2022-12-25T21:59:57.280Z,9.70
2022-12-25T22:08:05.566Z,9.80
2022-12-25T22:16:23.748Z,9.50
2022-12-25T22:24:31.876Z,9.60
2022-12-25T22:32:37.868Z,9.40
2022-12-25T22:40:45.956Z,8.90
2022-12-25T22:48:51.601Z,8.60
2022-12-25T22:57:00.470Z,8.80
2022-12-25T23:05:06.291Z,8.60
2022-12-25T23:13:27.266Z,8.50
2022-12-25T23:21:45.135Z,8.50
2022-12-25T23:29:53.117Z,8.50
2022-12-25T23:37:58.867Z,8.00
2022-12-25T23:46:07.047Z,8.10
2022-12-25T23:54:13.882Z,7.90
